West Pierrepont, New York
Current Conditions -  °F | °C
As of 4:53 PM on Friday 24 Oct 2014 (Local Time) from KMSS Reporting Station
Few Clouds Few Clouds  
Wind Chill: 59°   Ceiling: Unl
Heat Index: 59°   Visibility: 10mi
Dew Point: 41°   Wind: 0mph
Humidity: 51%   Direction: NA
Pressure: 29.85"   Gusts: NA
Location:  44.5792°N, 75.1592°W
Report Text: KMSS 242053Z AUTO 00000KT 10SM FEW090 15/05 A2985 RMK AO2 SLP110 T01500050 56008
Loading
Personal Weather Stations






























Interactive Weather Map
Tropical Storm Tracking
New forecast layout! Learn more

10-Day Weather Forecast

Advertisements
Track Severe Weather on mobile